Terminal Aerodrome Forecast
Issued by NWS Kansas City/Pleasant Hill, MO

Home | Current Version | Previous Version | Text Only | Print | Product List | Glossary On
Versions: 1 2 3 4 5 6 7 8 9 10 11 12 13 14 15 16
000
FTUS43 KEAX 232300
TAFMCI
TAF
KMCI 232326Z 2400/2424 33020G30KT 5SM -RA BR OVC012
     FM240600 30015G25KT 6SM -RA OVC020
     FM240800 30012G20KT 5SM -RASN OVC020
     FM241000 29015G25KT P6SM OVC025
     FM241700 29020G30KT P6SM SCT030=

USA.gov is the U.S. government's official web portal to all federal, state and local government web resources and services.